Time;durP1;ratioP1;P1;durP2;ratioP2;P2;SDS_P1;SDS_P2;PMS_P1;PMS_P2;Temp;Humidity;BMP_temperature;BMP_pressure;BME280_temperature;BME280_humidity;BME280_pressure;Samples;Min_cycle;Max_cycle;Signal;HPM_P1;HPM_P2
2023/01/05 00:00:23;;;;;;;2.05;0.75;;;;;;;9.05;100.00;95974.94;4981805;28;20054;-79
2023/01/05 00:03:09;;;;;;;1.35;0.80;;;;;;;9.02;100.00;95959.66;4967020;28;20382;-79
2023/01/05 00:05:34;;;;;;;1.02;0.73;;;;;;;9.01;100.00;95979.09;4988297;28;20054;-79
2023/01/05 00:08:00;;;;;;;1.20;0.73;;;;;;;8.99;100.00;95965.41;4990386;28;20535;-79
2023/01/05 00:24:06;;;;;;;1.23;0.80;;;;;;;9.01;100.00;95961.50;4982503;28;20130;-79
2023/01/05 00:26:31;;;;;;;0.65;0.60;;;;;;;8.99;100.00;95950.47;4961976;28;20398;-79
2023/01/05 00:28:57;;;;;;;2.35;0.90;;;;;;;9.07;100.00;95957.09;4984329;28;20493;-79
2023/01/05 00:31:22;;;;;;;0.75;0.60;;;;;;;9.06;100.00;95929.25;4962519;28;20058;-79
2023/01/05 00:33:48;;;;;;;3.33;0.80;;;;;;;9.08;100.00;95934.25;4981769;28;20045;-79
2023/01/05 00:36:13;;;;;;;2.33;0.63;;;;;;;9.11;100.00;95931.94;4956579;28;20050;-79
2023/01/05 00:38:39;;;;;;;1.30;0.70;;;;;;;9.05;100.00;95926.88;4971081;28;20046;-79
2023/01/05 00:41:04;;;;;;;2.05;0.80;;;;;;;9.09;100.00;95926.13;4979976;28;20043;-79
2023/01/05 00:43:30;;;;;;;0.98;0.77;;;;;;;9.07;100.00;95925.59;4974258;28;20043;-79
2023/01/05 00:45:55;;;;;;;2.63;0.80;;;;;;;9.14;100.00;95918.28;4977687;28;20038;-79
2023/01/05 00:48:21;;;;;;;1.48;1.00;;;;;;;9.14;100.00;95909.63;4983957;28;20616;-79
2023/01/05 00:50:48;;;;;;;0.52;0.50;;;;;;;9.22;100.00;95942.53;4970510;28;20104;-79
2023/01/05 00:53:14;;;;;;;0.40;0.40;;;;;;;9.24;100.00;95914.97;4986964;28;20050;-79
2023/01/05 00:55:39;;;;;;;1.05;0.75;;;;;;;9.19;100.00;95913.09;4965170;28;20425;-79
2023/01/05 00:58:05;;;;;;;0.88;0.70;;;;;;;9.16;100.00;95910.94;4977856;28;20687;-79
2023/01/05 01:00:30;;;;;;;0.75;0.50;;;;;;;9.07;100.00;95904.59;4979336;28;20038;-79
2023/01/05 01:02:56;;;;;;;0.95;0.60;;;;;;;9.23;100.00;95917.84;4991446;28;20053;-80
2023/01/05 01:05:21;;;;;;;0.75;0.52;;;;;;;9.19;100.00;95902.59;4965245;28;20428;-79
2023/01/05 01:07:48;;;;;;;1.17;0.55;;;;;;;9.23;100.00;95894.22;4954850;28;20043;-79
2023/01/05 01:10:14;;;;;;;1.10;0.60;;;;;;;9.19;100.00;95913.09;4984261;28;20042;-81
2023/01/05 01:12:39;;;;;;;0.95;0.70;;;;;;;9.29;100.00;95927.34;4980422;28;20054;-79
2023/01/05 01:15:07;;;;;;;0.47;0.47;;;;;;;9.33;100.00;95917.94;4965677;28;20038;-79
2023/01/05 01:17:33;;;;;;;1.00;0.50;;;;;;;9.26;100.00;95925.22;4965863;28;20397;-79
2023/01/05 01:19:58;;;;;;;2.90;0.82;;;;;;;9.30;100.00;95921.06;4967788;28;20039;-79
2023/01/05 01:22:24;;;;;;;1.58;0.75;;;;;;;9.29;100.00;95924.72;4974383;28;20484;-80
2023/01/05 01:24:50;;;;;;;0.50;0.32;;;;;;;9.21;100.00;95914.66;4971951;28;20092;-79
2023/01/05 01:27:16;;;;;;;1.20;0.63;;;;;;;9.23;100.00;95912.59;4955549;28;20094;-79
2023/01/05 01:29:42;;;;;;;0.80;0.60;;;;;;;9.13;100.00;95914.06;4981034;28;20560;-78
2023/01/05 01:32:07;;;;;;;1.48;0.60;;;;;;;9.18;100.00;95927.25;4972849;28;20042;-78
2023/01/05 01:34:33;;;;;;;1.05;0.70;;;;;;;9.17;100.00;95920.41;4983979;28;20039;-79
2023/01/05 01:36:59;;;;;;;0.45;0.40;;;;;;;9.19;100.00;95913.09;5000191;28;20040;-79
2023/01/05 01:39:24;;;;;;;0.40;0.40;;;;;;;9.21;100.00;95914.66;4993121;28;20063;-81
2023/01/05 01:41:50;;;;;;;0.63;0.50;;;;;;;9.16;100.00;95913.56;5017897;28;20030;-79
2023/01/05 01:44:48;;;;;;;1.30;0.60;;;;;;;9.18;100.00;95921.22;5002771;28;20031;-80
2023/01/05 01:47:37;;;;;;;0.55;0.55;;;;;;;9.16;100.00;95908.31;4982532;28;20038;-79
2023/01/05 01:50:11;;;;;;;0.60;0.60;;;;;;;9.23;100.00;95917.84;4982623;28;20027;-80
2023/01/05 01:52:38;;;;;;;0.50;0.50;;;;;;;9.23;100.00;95917.84;5001728;28;20023;-80
2023/01/05 01:55:05;;;;;;;0.65;0.65;;;;;;;9.19;100.00;95918.34;5018950;28;20031;-79
2023/01/05 01:57:32;;;;;;;0.55;0.55;;;;;;;9.19;100.00;95899.97;4993344;28;20044;-78
2023/01/05 02:00:00;;;;;;;2.05;0.60;;;;;;;9.17;100.00;95901.25;4994134;28;20398;-78
2023/01/05 02:02:27;;;;;;;0.90;0.68;;;;;;;9.17;100.00;95899.41;4972299;28;20053;-78
2023/01/05 02:04:55;;;;;;;1.65;0.63;;;;;;;9.22;100.00;95890.00;4974605;28;20035;-78
2023/01/05 02:07:23;;;;;;;0.93;0.60;;;;;;;9.28;100.00;95883.72;4991923;28;20070;-79
2023/01/05 02:09:49;;;;;;;0.65;0.60;;;;;;;9.36;100.00;95906.91;4984534;28;20034;-79
2023/01/05 02:12:43;;;;;;;0.60;0.50;;;;;;;9.26;100.00;95881.34;4974714;28;20058;-79
2023/01/05 02:15:23;;;;;;;0.80;0.52;;;;;;;9.22;100.00;95884.75;4985101;28;20416;-78
2023/01/05 02:18:00;;;;;;;1.02;0.60;;;;;;;9.26;100.00;95870.06;4992251;28;20038;-78
2023/01/05 02:20:42;;;;;;;0.68;0.68;;;;;;;9.26;100.00;95864.81;4984510;28;20516;-78
2023/01/05 02:23:10;;;;;;;1.73;0.20;;;;;;;9.23;100.00;95860.06;4986291;28;20109;-79
2023/01/05 02:26:13;;;;;;;0.50;0.45;;;;;;;9.17;100.00;95846.91;4977127;28;20093;-78
2023/01/05 02:28:54;;;;;;;0.90;0.68;;;;;;;9.24;100.00;95840.63;4970516;28;20054;-78
2023/01/05 02:31:55;;;;;;;0.80;0.60;;;;;;;9.29;100.00;95843.31;4982965;28;20051;-79
2023/01/05 02:34:47;;;;;;;2.00;0.52;;;;;;;9.42;100.00;95842.84;4991322;28;20120;-79
2023/01/05 02:37:23;;;;;;;0.90;0.60;;;;;;;9.42;100.00;95821.84;4966767;28;20046;-78
2023/01/05 02:39:57;;;;;;;0.43;0.35;;;;;;;9.50;100.00;95817.97;4985059;28;20046;-78
2023/01/05 02:42:24;;;;;;;1.05;0.73;;;;;;;9.47;100.00;95819.25;4987089;28;20035;-78
2023/01/05 02:44:50;;;;;;;0.55;0.50;;;;;;;9.44;100.00;95804.00;4975677;28;20047;-78
2023/01/05 02:47:28;;;;;;;1.05;0.70;;;;;;;9.40;100.00;95810.81;4970258;28;20066;-79
2023/01/05 02:50:00;;;;;;;1.90;0.73;;;;;;;9.27;100.00;95814.66;4974853;28;20042;-78
2023/01/05 02:52:30;;;;;;;0.60;0.57;;;;;;;9.16;100.00;95803.28;4975331;28;20050;-79
2023/01/05 02:55:04;;;;;;;0.52;0.50;;;;;;;8.97;100.00;95810.00;4976200;28;20058;-79
2023/01/05 02:57:46;;;;;;;0.93;0.70;;;;;;;8.99;100.00;95821.03;4969586;28;20046;-78
2023/01/05 03:00:37;;;;;;;0.98;0.73;;;;;;;9.08;100.00;95811.66;4970704;28;20043;-79
2023/01/05 03:03:14;;;;;;;0.88;0.65;;;;;;;9.04;100.00;95815.84;4983191;28;20552;-78
2023/01/05 03:05:48;;;;;;;0.43;0.43;;;;;;;8.91;100.00;95821.50;4981993;28;20049;-79
2023/01/05 03:08:20;;;;;;;0.63;0.63;;;;;;;8.90;100.00;95819.91;4957825;28;20047;-78
2023/01/05 03:14:00;;;;;;;1.20;0.80;;;;;;;8.84;100.00;95806.75;4978471;28;20047;-79
2023/01/05 03:16:32;;;;;;;1.38;0.75;;;;;;;8.78;100.00;95791.22;4989415;28;20053;-79
2023/01/05 03:35:42;;;;;;;3.28;0.70;;;;;;;8.42;100.00;95788.25;4991307;28;20042;-79
2023/01/05 03:38:35;;;;;;;0.57;0.50;;;;;;;8.47;100.00;95791.72;4988568;28;20047;-79
2023/01/05 03:41:03;;;;;;;1.23;0.65;;;;;;;8.66;100.00;95783.50;4977184;28;20057;-79
2023/01/05 03:43:34;;;;;;;1.65;0.93;;;;;;;8.61;100.00;95786.09;4973771;28;20038;-79
2023/01/05 03:46:00;;;;;;;2.15;1.08;;;;;;;8.75;100.00;95797.75;4987354;28;20039;-79
2023/01/05 03:48:27;;;;;;;0.90;0.70;;;;;;;8.70;100.00;95797.72;4958925;28;20070;-80
2023/01/05 03:50:54;;;;;;;1.50;0.90;;;;;;;8.73;100.00;95773.59;4963813;28;20498;-81
2023/01/05 03:53:19;;;;;;;1.17;0.70;;;;;;;8.74;100.00;95796.16;4974625;28;20521;-79
2023/01/05 03:55:45;;;;;;;0.75;0.60;;;;;;;8.73;100.00;95794.59;4964907;28;20045;-80
2023/01/05 03:58:10;;;;;;;1.02;0.80;;;;;;;8.76;100.00;95788.06;4986132;28;20042;-79
2023/01/05 04:00:36;;;;;;;2.38;0.60;;;;;;;8.75;100.00;95776.78;4993038;28;20485;-79
2023/01/05 04:03:01;;;;;;;1.48;0.73;;;;;;;8.86;100.00;95768.97;4988091;28;20050;-79
2023/01/05 04:05:27;;;;;;;0.80;0.57;;;;;;;8.87;100.00;95773.19;4961834;28;20038;-79
2023/01/05 04:07:52;;;;;;;2.65;0.63;;;;;;;8.82;100.00;95776.53;4957559;28;20441;-79
2023/01/05 04:10:18;;;;;;;1.48;0.90;;;;;;;8.81;100.00;95764.47;4978923;28;20042;-80
2023/01/05 04:12:45;;;;;;;1.27;0.80;;;;;;;8.90;100.00;95733.31;4990157;28;20050;-80
2023/01/05 04:15:11;;;;;;;0.47;0.43;;;;;;;8.98;100.00;95759.09;4991962;28;20043;-79
2023/01/05 04:17:36;;;;;;;0.65;0.52;;;;;;;8.99;100.00;95744.91;4966768;28;20049;-80
2023/01/05 04:20:04;;;;;;;0.40;0.40;;;;;;;9.03;100.00;95753.84;4978792;28;20046;-80
2023/01/05 04:22:30;;;;;;;0.20;0.20;;;;;;;9.05;100.00;95738.66;4985979;28;20050;-79
2023/01/05 04:24:56;;;;;;;0.57;0.47;;;;;;;9.10;100.00;95740.53;4964360;28;20038;-79
2023/01/05 04:27:22;;;;;;;0.73;0.60;;;;;;;9.09;100.00;95734.47;4959886;28;20042;-81
2023/01/05 04:29:47;;;;;;;1.13;0.88;;;;;;;9.16;100.00;95763.91;4956088;28;20081;-80
2023/01/05 04:32:13;;;;;;;0.43;0.30;;;;;;;9.28;100.00;95778.69;4975615;28;20709;-79
2023/01/05 04:34:38;;;;;;;2.22;0.60;;;;;;;9.27;100.00;95785.78;4974596;28;20714;-80
2023/01/05 04:37:04;;;;;;;0.75;0.43;;;;;;;9.40;100.00;95783.75;4957071;28;20047;-78
2023/01/05 04:39:29;;;;;;;0.52;0.52;;;;;;;9.35;100.00;95779.25;4970583;28;20156;-79
2023/01/05 04:41:55;;;;;;;0.40;0.40;;;;;;;9.39;100.00;95790.84;4980302;28;20062;-80
2023/01/05 04:44:21;;;;;;;0.73;0.50;;;;;;;9.32;100.00;95785.00;4983911;28;20050;-79
2023/01/05 04:46:46;;;;;;;1.20;0.43;;;;;;;9.35;100.00;95779.25;4981140;28;20413;-79
2023/01/05 04:49:12;;;;;;;0.75;0.40;;;;;;;9.32;100.00;95779.75;4959204;28;20050;-79
2023/01/05 04:51:37;;;;;;;0.85;0.55;;;;;;;9.36;100.00;95779.00;4973611;28;20046;-80
2023/01/05 04:54:03;;;;;;;1.42;0.60;;;;;;;9.39;100.00;95780.31;4974809;28;20035;-80
2023/01/05 04:56:28;;;;;;;0.43;0.40;;;;;;;9.34;100.00;95788.19;4972777;28;20768;-79
2023/01/05 04:58:54;;;;;;;1.15;0.60;;;;;;;9.34;100.00;95778.47;4965276;28;20042;-79
2023/01/05 05:01:19;;;;;;;0.40;0.40;;;;;;;9.36;100.00;95775.59;4987153;28;20053;-79
2023/01/05 05:03:45;;;;;;;0.68;0.60;;;;;;;9.35;100.00;95768.75;4989886;28;20042;-80
2023/01/05 05:06:10;;;;;;;0.90;0.82;;;;;;;9.37;100.00;95771.91;4992208;28;20042;-80
2023/01/05 05:08:36;;;;;;;0.52;0.50;;;;;;;9.34;100.00;95772.44;4992316;28;20069;-79
2023/01/05 05:11:01;;;;;;;0.95;0.60;;;;;;;9.31;100.00;95757.16;4972470;28;20401;-80
2023/01/05 05:13:27;;;;;;;0.60;0.60;;;;;;;9.27;100.00;95766.63;4980171;28;20038;-79
2023/01/05 05:15:53;;;;;;;0.55;0.50;;;;;;;9.23;100.00;95760.28;4974505;28;20411;-79
2023/01/05 05:18:20;;;;;;;0.68;0.45;;;;;;;9.37;100.00;95771.91;4991172;28;20058;-79
2023/01/05 05:20:49;;;;;;;1.85;0.60;;;;;;;9.33;100.00;95770.84;4984050;28;20519;-80
2023/01/05 05:23:15;;;;;;;0.57;0.57;;;;;;;9.32;100.00;95764.81;4973505;28;20042;-79
2023/01/05 05:25:40;;;;;;;0.40;0.40;;;;;;;9.24;100.00;95753.97;4983542;28;20110;-80
2023/01/05 05:28:06;;;;;;;1.23;0.68;;;;;;;9.39;100.00;95769.03;4989849;28;20076;-79
2023/01/05 05:30:31;;;;;;;1.55;1.00;;;;;;;9.40;100.00;95776.66;4974666;28;20042;-79
2023/01/05 05:32:57;;;;;;;0.90;0.65;;;;;;;9.34;100.00;95770.59;4961604;28;20046;-79
2023/01/05 05:35:22;;;;;;;0.60;0.40;;;;;;;9.38;100.00;95768.25;4988282;28;20492;-79
2023/01/05 05:37:48;;;;;;;1.30;0.80;;;;;;;9.28;100.00;95747.16;4958786;28;20563;-79
2023/01/05 05:40:13;;;;;;;0.88;0.63;;;;;;;9.32;100.00;95758.75;4980229;28;20070;-80
2023/01/05 05:42:39;;;;;;;0.50;0.47;;;;;;;9.32;100.00;95764.81;4970817;28;20039;-80
2023/01/05 05:45:05;;;;;;;1.85;0.70;;;;;;;9.21;100.00;95767.63;4988759;28;20420;-79
2023/01/05 05:47:31;;;;;;;0.52;0.52;;;;;;;9.15;100.00;95770.22;4976682;28;20161;-79
2023/01/05 05:49:56;;;;;;;0.90;0.75;;;;;;;9.28;100.00;95762.94;4987479;28;20031;-79
2023/01/05 05:52:22;;;;;;;0.60;0.60;;;;;;;9.27;100.00;95779.75;4986721;28;20133;-80
2023/01/05 05:54:48;;;;;;;0.50;0.50;;;;;;;9.24;100.00;95782.84;4975923;28;20042;-79
2023/01/05 05:57:13;;;;;;;0.68;0.50;;;;;;;9.29;100.00;95781.06;4978642;28;20072;-79
2023/01/05 05:59:39;;;;;;;1.77;0.65;;;;;;;9.16;100.00;95777.03;4977725;28;20098;-79
2023/01/05 06:02:04;;;;;;;0.52;0.47;;;;;;;9.21;100.00;95793.88;4992398;28;20519;-80
2023/01/05 06:04:30;;;;;;;2.35;0.73;;;;;;;9.28;100.00;95783.94;4966866;28;20417;-80
2023/01/05 06:06:55;;;;;;;1.45;0.77;;;;;;;9.18;100.00;95788.09;4989268;28;20058;-79
2023/01/05 06:09:21;;;;;;;0.90;0.50;;;;;;;9.23;100.00;95789.97;4972857;28;20062;-80
2023/01/05 06:11:46;;;;;;;0.90;0.57;;;;;;;9.31;100.00;95792.13;4966089;28;20050;-80
2023/01/05 06:14:12;;;;;;;0.88;0.65;;;;;;;9.26;100.00;95801.78;4968170;28;20072;-80
2023/01/05 06:16:37;;;;;;;0.50;0.50;;;;;;;9.27;100.00;95804.16;4976554;28;20540;-79
2023/01/05 06:19:03;;;;;;;0.70;0.70;;;;;;;9.33;100.00;95824.16;4975602;28;20604;-80
2023/01/05 06:21:29;;;;;;;1.23;0.52;;;;;;;9.32;100.00;95827.84;4977661;28;20058;-79
2023/01/05 06:23:54;;;;;;;0.40;0.40;;;;;;;9.34;100.00;95824.97;4975328;28;20042;-80
2023/01/05 06:26:20;;;;;;;0.93;0.70;;;;;;;9.29;100.00;95827.53;4985068;28;20039;-79
2023/01/05 06:28:45;;;;;;;0.50;0.50;;;;;;;9.30;100.00;95818.63;4959146;28;20050;-79
2023/01/05 06:31:11;;;;;;;0.77;0.50;;;;;;;9.35;100.00;95811.56;4970728;28;20090;-80
2023/01/05 06:33:36;;;;;;;0.68;0.50;;;;;;;9.33;100.00;95823.38;4975248;28;20073;-80
2023/01/05 06:36:02;;;;;;;1.25;0.63;;;;;;;9.25;100.00;95821.22;4987047;28;20038;-80
2023/01/05 06:38:29;;;;;;;0.73;0.65;;;;;;;9.24;100.00;95824.88;4974482;28;20065;-79
2023/01/05 06:40:54;;;;;;;0.40;0.40;;;;;;;9.24;100.00;95819.63;4986639;28;20042;-80
2023/01/05 06:43:20;;;;;;;1.02;0.65;;;;;;;9.24;100.00;95819.63;4988510;28;20054;-80
2023/01/05 06:45:46;;;;;;;0.60;0.60;;;;;;;9.27;100.00;95829.66;4986486;28;20062;-79
2023/01/05 06:48:11;;;;;;;0.73;0.50;;;;;;;9.29;100.00;95841.47;4994052;28;20038;-80
2023/01/05 06:50:37;;;;;;;0.60;0.45;;;;;;;9.25;100.00;95837.78;4986227;28;20693;-80
2023/01/05 06:53:02;;;;;;;0.98;0.32;;;;;;;9.19;100.00;95833.50;4969642;28;20044;-80
2023/01/05 06:55:28;;;;;;;1.70;0.82;;;;;;;9.14;100.00;95836.91;4990542;28;20122;-78
2023/01/05 06:57:54;;;;;;;2.08;0.55;;;;;;;9.20;100.00;95850.88;4986497;28;20416;-77
2023/01/05 07:00:20;;;;;;;2.28;0.52;;;;;;;9.17;100.00;95835.63;4964285;28;20054;-77
2023/01/05 07:02:46;;;;;;;0.60;0.60;;;;;;;9.18;100.00;95837.22;4991613;28;20412;-79
2023/01/05 07:05:12;;;;;;;0.57;0.57;;;;;;;9.21;100.00;95856.91;4975991;28;20050;-80
2023/01/05 07:07:37;;;;;;;0.68;0.60;;;;;;;9.16;100.00;95844.53;4978500;28;20042;-80
2023/01/05 07:10:04;;;;;;;0.85;0.63;;;;;;;9.17;100.00;95854.78;4984359;28;20524;-80
2023/01/05 07:12:30;;;;;;;0.60;0.43;;;;;;;9.14;100.00;95836.91;4985763;28;20078;-80
2023/01/05 07:14:55;;;;;;;2.05;1.05;;;;;;;9.16;100.00;95829.56;4979015;28;20516;-78
2023/01/05 07:17:21;;;;;;;0.73;0.73;;;;;;;9.06;100.00;95842.59;4993568;28;20655;-78
2023/01/05 07:19:46;;;;;;;0.50;0.50;;;;;;;9.04;100.00;95851.78;4978597;28;20050;-79
2023/01/05 07:22:12;;;;;;;0.43;0.43;;;;;;;9.04;100.00;95849.16;4968624;28;20101;-80
2023/01/05 07:24:38;;;;;;;1.20;0.82;;;;;;;8.99;100.00;95844.66;4960717;28;20482;-79
2023/01/05 07:27:03;;;;;;;0.73;0.68;;;;;;;9.09;100.00;95855.22;5000042;28;20038;-79
2023/01/05 07:29:29;;;;;;;1.00;0.75;;;;;;;9.07;100.00;95841.56;4992950;28;20042;-80
2023/01/05 07:31:54;;;;;;;0.93;0.82;;;;;;;9.14;100.00;95852.66;4979218;28;20519;-80
2023/01/05 07:34:21;;;;;;;1.27;0.90;;;;;;;9.14;100.00;95860.53;4993442;28;20066;-81
2023/01/05 07:36:47;;;;;;;1.63;1.00;;;;;;;9.24;100.00;95859.00;4966793;28;20043;-78
2023/01/05 07:39:13;;;;;;;1.13;0.80;;;;;;;9.26;100.00;95864.81;4968521;28;20066;-77
2023/01/05 07:41:38;;;;;;;0.52;0.50;;;;;;;9.30;100.00;95865.91;4978682;28;20039;-78
2023/01/05 07:44:04;;;;;;;2.80;0.65;;;;;;;9.22;100.00;95874.25;4981761;28;20520;-79
2023/01/05 07:46:30;;;;;;;1.05;0.77;;;;;;;9.18;100.00;95874.75;4972694;28;20409;-77
2023/01/05 07:48:56;;;;;;;0.38;0.38;;;;;;;9.24;100.00;95878.22;4987754;28;20113;-77
2023/01/05 07:51:21;;;;;;;0.77;0.77;;;;;;;9.23;100.00;95883.72;4967609;28;20053;-77
2023/01/05 07:53:47;;;;;;;0.50;0.50;;;;;;;9.28;100.00;95883.72;4981658;28;20039;-78
2023/01/05 07:56:13;;;;;;;1.30;0.88;;;;;;;9.31;100.00;95884.03;4990231;28;20426;-79
2023/01/05 07:58:40;;;;;;;0.75;0.75;;;;;;;9.27;100.00;95884.78;4985485;28;20092;-78
2023/01/05 08:01:13;;;;;;;0.60;0.60;;;;;;;9.30;100.00;95892.16;4987333;28;20043;-78
2023/01/05 08:03:39;;;;;;;1.10;0.70;;;;;;;9.31;100.00;95899.78;4988367;28;20042;-77
2023/01/05 08:06:06;;;;;;;0.70;0.47;;;;;;;9.40;100.00;95908.00;4968356;28;20046;-76
2023/01/05 08:08:32;;;;;;;0.60;0.60;;;;;;;9.39;100.00;95906.41;4972466;28;20050;-77
2023/01/05 08:10:57;;;;;;;2.85;0.70;;;;;;;9.41;100.00;95920.09;4982062;28;20038;-78
2023/01/05 08:16:07;;;;;;;0.60;0.60;;;;;;;9.35;100.00;95921.09;4986093;28;20129;-78
2023/01/05 08:18:32;;;;;;;0.82;0.70;;;;;;;9.39;100.00;95916.91;4988293;28;20295;-78
2023/01/05 08:21:03;;;;;;;1.75;0.75;;;;;;;9.32;100.00;95921.59;4981014;28;20042;-77
2023/01/05 08:23:30;;;;;;;0.70;0.70;;;;;;;9.41;100.00;95921.91;4981107;28;20042;-77
2023/01/05 08:25:55;;;;;;;1.25;0.60;;;;;;;9.36;100.00;95917.41;4991724;28;20042;-78
2023/01/05 08:28:23;;;;;;;0.98;0.73;;;;;;;9.42;100.00;95936.63;4987479;28;20050;-77
2023/01/05 08:30:49;;;;;;;0.70;0.50;;;;;;;9.38;100.00;95941.63;4980961;28;20045;-77
2023/01/05 08:33:14;;;;;;;2.20;0.47;;;;;;;9.37;100.00;95942.66;4991561;28;20058;-77
2023/01/05 08:35:41;;;;;;;0.75;0.68;;;;;;;9.34;100.00;95930.81;4991387;28;20043;-76
2023/01/05 08:38:07;;;;;;;1.08;0.70;;;;;;;9.38;100.00;95936.38;4975997;28;20070;-77
2023/01/05 08:40:33;;;;;;;0.57;0.57;;;;;;;9.34;100.00;95937.91;4972173;28;20493;-75
2023/01/05 08:42:58;;;;;;;0.43;0.40;;;;;;;9.15;100.00;95943.53;4973597;28;20065;-82
2023/01/05 08:45:24;;;;;;;0.43;0.43;;;;;;;9.13;100.00;95944.81;4973154;28;20449;-80
2023/01/05 08:47:50;;;;;;;0.77;0.68;;;;;;;9.06;100.00;95955.50;4982984;28;20099;-78
2023/01/05 08:50:16;;;;;;;0.63;0.60;;;;;;;9.05;100.00;95948.69;4988321;28;20043;-80
2023/01/05 08:52:42;;;;;;;0.63;0.63;;;;;;;9.12;100.00;95932.72;4980068;28;20042;-79
2023/01/05 08:55:07;;;;;;;0.52;0.52;;;;;;;9.27;100.00;95945.19;4975172;28;20046;-78
2023/01/05 08:57:33;;;;;;;1.90;1.10;;;;;;;9.24;100.00;95945.66;4970761;28;20046;-79
2023/01/05 08:59:58;;;;;;;0.90;0.52;;;;;;;9.36;100.00;95948.94;4992497;28;20049;-80
2023/01/05 09:02:25;;;;;;;1.02;0.60;;;;;;;9.41;100.00;95946.38;4969732;28;20042;-79
2023/01/05 09:04:50;;;;;;;1.23;0.60;;;;;;;9.47;100.00;95953.22;4992305;28;20180;-77
2023/01/05 09:07:16;;;;;;;1.60;0.70;;;;;;;9.44;100.00;95945.84;4987887;28;20035;-79
2023/01/05 09:09:42;;;;;;;1.13;0.80;;;;;;;9.42;100.00;95963.69;4965403;28;20051;-79
2023/01/05 09:12:07;;;;;;;0.95;0.77;;;;;;;9.43;100.00;95970.53;4987707;28;20050;-79
2023/01/05 09:14:33;;;;;;;0.55;0.50;;;;;;;9.46;100.00;95970.03;4972840;28;20042;-79
2023/01/05 09:16:59;;;;;;;0.57;0.57;;;;;;;9.56;100.00;95973.81;4958088;28;20039;-78
2023/01/05 09:19:24;;;;;;;0.93;0.60;;;;;;;9.59;100.00;95968.03;4991591;28;20046;-80
2023/01/05 09:21:51;;;;;;;0.50;0.50;;;;;;;9.63;100.00;95990.16;4978848;28;20039;-79
2023/01/05 09:24:17;;;;;;;1.85;0.52;;;;;;;9.61;100.00;95986.97;4962843;28;20034;-78
2023/01/05 09:26:43;;;;;;;0.30;0.30;;;;;;;9.65;100.00;95982.78;4987036;28;20053;-79
2023/01/05 09:29:09;;;;;;;0.38;0.38;;;;;;;9.73;100.00;96000.72;4992975;28;20096;-80
2023/01/05 09:31:35;;;;;;;0.30;0.30;;;;;;;9.67;100.00;95985.97;4976081;28;20504;-79
2023/01/05 09:34:00;;;;;;;1.30;0.68;;;;;;;9.68;100.00;95992.78;4975108;28;20045;-79
2023/01/05 09:36:26;;;;;;;0.32;0.20;;;;;;;9.66;100.00;95994.91;4975316;28;20512;-79
2023/01/05 09:38:52;;;;;;;0.70;0.55;;;;;;;9.68;100.00;95998.06;4969621;28;20035;-79
2023/01/05 09:41:36;;;;;;;0.85;0.43;;;;;;;9.74;100.00;96002.31;4993174;28;20047;-79
2023/01/05 09:44:10;;;;;;;0.50;0.50;;;;;;;9.71;100.00;96008.06;4975624;28;20047;-79
2023/01/05 09:46:40;;;;;;;0.55;0.52;;;;;;;9.71;100.00;96008.06;4957866;28;20043;-79
2023/01/05 09:49:12;;;;;;;0.52;0.52;;;;;;;9.74;100.00;95997.06;4992832;28;20049;-79
2023/01/05 09:51:37;;;;;;;0.95;0.63;;;;;;;9.75;100.00;95988.13;4983055;28;20054;-79
2023/01/05 09:54:03;;;;;;;0.60;0.40;;;;;;;9.82;100.00;95993.94;4973079;28;20054;-79
2023/01/05 09:56:31;;;;;;;0.55;0.38;;;;;;;9.83;100.00;95990.28;4992778;28;20049;-79
2023/01/05 09:59:32;;;;;;;0.47;0.30;;;;;;;9.84;100.00;96002.41;4989642;28;20172;-78
2023/01/05 10:02:02;;;;;;;0.93;0.57;;;;;;;9.83;100.00;96006.06;4956509;28;20039;-80
2023/01/05 10:04:31;;;;;;;2.55;0.85;;;;;;;9.81;100.00;96000.28;4976086;28;20061;-79
2023/01/05 10:07:07;;;;;;;0.52;0.40;;;;;;;9.85;100.00;96003.97;4992907;28;20783;-80
2023/01/05 10:09:38;;;;;;;0.75;0.47;;;;;;;9.81;100.00;95997.66;4975159;28;20114;-79
2023/01/05 10:15:11;;;;;;;0.60;0.60;;;;;;;9.88;100.00;96008.75;4974409;28;20046;-79
2023/01/05 10:17:38;;;;;;;0.73;0.65;;;;;;;9.88;100.00;96002.66;4972445;28;20042;-80
2023/01/05 10:20:25;;;;;;;0.73;0.68;;;;;;;9.87;100.00;96017.66;4970789;28;20134;-80
2023/01/05 10:22:57;;;;;;;0.47;0.47;;;;;;;9.92;100.00;96014.28;4955777;28;20046;-79
2023/01/05 10:25:37;;;;;;;0.63;0.40;;;;;;;9.95;100.00;96011.13;4955699;28;20043;-79
2023/01/05 10:28:35;;;;;;;1.13;0.60;;;;;;;10.01;100.00;96023.28;4989510;28;20050;-79
2023/01/05 10:31:07;;;;;;;2.08;0.85;;;;;;;9.96;100.00;96025.09;4974573;28;20047;-79
2023/01/05 10:34:22;;;;;;;0.70;0.55;;;;;;;10.04;100.00;96032.47;4979869;28;20058;-77
2023/01/05 10:36:53;;;;;;;0.70;0.70;;;;;;;9.99;100.00;96019.31;4903089;29;20095;-78
2023/01/05 10:39:46;;;;;;;0.95;0.60;;;;;;;10.03;100.00;96023.03;4899920;29;20550;-76
2023/01/05 10:42:39;;;;;;;0.68;0.50;;;;;;;10.06;100.00;96030.41;4960982;28;20065;-77
2023/01/05 10:45:18;;;;;;;0.70;0.60;;;;;;;10.07;100.00;96029.38;4992083;28;20042;-76
2023/01/05 10:47:45;;;;;;;1.08;0.80;;;;;;;10.02;100.00;96029.31;4977506;28;20511;-76
2023/01/05 10:50:30;;;;;;;0.93;0.75;;;;;;;10.08;100.00;96035.41;4980376;28;20039;-77
2023/01/05 10:52:55;;;;;;;;;;;;;;;10.04;100.00;96037.75;4976008;28;20051;-77
2023/01/05 10:55:22;;;;;;;0.63;0.63;;;;;;;10.04;100.00;96024.59;4975622;28;20017;-76
2023/01/05 10:57:48;;;;;;;1.33;0.90;;;;;;;10.06;100.00;96033.03;4957987;28;20046;-77
2023/01/05 11:00:19;;;;;;;1.10;0.57;;;;;;;10.07;100.00;96021.50;4979730;28;20046;-78
2023/01/05 11:02:51;;;;;;;1.17;0.80;;;;;;;10.09;100.00;96019.38;4997017;28;20079;-78
2023/01/05 11:05:36;;;;;;;0.88;0.88;;;;;;;10.15;100.00;96018.38;4983123;28;20136;-76
2023/01/05 11:08:06;;;;;;;;;;;;;;;10.30;100.00;96024.75;4976977;28;20487;-74
2023/01/05 11:10:40;;;;;;;1.10;0.85;;;;;;;10.16;100.00;96019.97;4984969;28;19921;-74
2023/01/05 11:13:20;;;;;;;0.50;0.50;;;;;;;10.22;100.00;96018.94;4991038;28;20039;-79
2023/01/05 11:15:55;;;;;;;0.47;0.40;;;;;;;10.12;100.00;96013.63;4972091;28;20042;-78
2023/01/05 11:18:29;;;;;;;0.77;0.75;;;;;;;10.12;100.00;96013.63;4970168;28;20760;-79
2023/01/05 11:21:11;;;;;;;0.93;0.60;;;;;;;10.10;100.00;96020.97;4975379;28;20108;-78
2023/01/05 11:23:47;;;;;;;3.08;0.70;;;;;;;10.06;100.00;96010.16;4986748;28;20407;-78
2023/01/05 11:26:21;;;;;;;0.57;0.50;;;;;;;9.76;100.00;96023.88;4984776;28;20417;-78
2023/01/05 11:29:12;;;;;;;0.82;0.60;;;;;;;9.31;100.00;96038.19;4989242;28;20058;-79
2023/01/05 11:31:56;;;;;;;0.65;0.43;;;;;;;8.99;100.00;96028.41;4966034;28;20065;-78
2023/01/05 11:34:44;;;;;;;3.05;0.60;;;;;;;8.80;100.00;96036.59;4969106;28;20041;-77
2023/01/05 11:37:28;;;;;;;0.50;0.47;;;;;;;8.56;100.00;96035.25;4967372;28;20050;-79
2023/01/05 11:39:55;;;;;;;1.92;0.90;;;;;;;8.47;100.00;96025.19;4992783;28;20046;-80
2023/01/05 11:42:24;;;;;;;1.15;0.90;;;;;;;8.43;100.00;96026.69;4974874;28;20042;-77
2023/01/05 11:44:55;;;;;;;0.75;0.75;;;;;;;8.47;100.00;96038.28;4993840;28;20042;-78
2023/01/05 11:47:33;;;;;;;0.50;0.50;;;;;;;8.51;100.00;96022.09;4988813;28;20042;-78
2023/01/05 11:50:12;;;;;;;0.60;0.40;;;;;;;8.48;100.00;96021.53;4984653;28;20117;-79
2023/01/05 11:52:40;;;;;;;0.98;0.60;;;;;;;8.53;100.00;96014.75;4971982;28;20046;-78
2023/01/05 11:55:23;;;;;;;0.50;0.50;;;;;;;8.70;100.00;96019.97;4980728;28;20471;-78
2023/01/05 11:57:51;;;;;;;0.70;0.65;;;;;;;8.67;100.00;96010.72;4983572;28;20046;-77
2023/01/05 12:00:26;;;;;;;1.50;0.75;;;;;;;8.78;100.00;96027.41;4996993;28;20046;-79
2023/01/05 12:03:10;;;;;;;;;;;;;;;8.91;100.00;96010.50;4982222;28;20045;-78
2023/01/05 12:05:42;;;;;;;1.98;0.88;;;;;;;8.84;100.00;96011.44;4988976;28;19928;-77
2023/01/05 12:08:14;;;;;;;1.13;0.82;;;;;;;8.78;100.00;96009.81;4988820;28;20046;-78
2023/01/05 12:11:04;;;;;;;1.27;1.00;;;;;;;8.79;100.00;96014.03;4981075;28;20496;-77
2023/01/05 12:14:03;;;;;;;2.60;1.10;;;;;;;8.79;100.00;96006.16;4991253;28;20050;-78
2023/01/05 12:16:49;;;;;;;2.47;0.82;;;;;;;8.93;100.00;96013.66;4994667;28;20039;-78
2023/01/05 12:19:35;;;;;;;1.25;0.82;;;;;;;8.97;100.00;96020.78;4976930;28;20038;-79
2023/01/05 12:22:12;;;;;;;1.08;0.80;;;;;;;9.01;100.00;96011.38;4979855;28;20042;-78
2023/01/05 12:24:47;;;;;;;2.63;1.25;;;;;;;9.04;100.00;96012.72;4983820;28;20054;-76